Time;durP1;ratioP1;P1;durP2;ratioP2;P2;SDS_P1;SDS_P2;PMS_P1;PMS_P2;Temp;Humidity;BMP_temperature;BMP_pressure;BME280_temperature;BME280_humidity;BME280_pressure;Samples;Min_cycle;Max_cycle;Signal;HPM_P1;HPM_P2
2020/12/29 00:00:09;;;;;;;4.07;1.43;;;;;;;6.79;100.00;95820.78;5053898;28;20174;-90
2020/12/29 00:02:36;;;;;;;2.70;1.40;;;;;;;6.81;100.00;95819.69;5053689;28;20201;-90
2020/12/29 00:05:04;;;;;;;3.37;1.50;;;;;;;6.83;100.00;95822.16;5052500;28;20209;-90
2020/12/29 00:07:31;;;;;;;2.97;2.00;;;;;;;6.78;100.00;95835.63;5061678;28;20864;-90
2020/12/29 00:09:58;;;;;;;2.70;1.97;;;;;;;6.73;100.00;95842.28;5068121;28;20236;-91
2020/12/29 00:12:25;;;;;;;2.53;1.70;;;;;;;6.77;100.00;95834.00;5064818;28;20286;-90
2020/12/29 00:14:52;;;;;;;4.40;1.63;;;;;;;6.72;100.00;95838.00;5052642;28;20240;-92
2020/12/29 00:17:24;;;;;;;4.87;2.53;;;;;;;6.77;100.00;95847.06;5052743;28;20312;-91
2020/12/29 00:19:52;;;;;;;3.37;2.43;;;;;;;6.71;100.00;95839.81;5035490;28;20197;-91
2020/12/29 00:22:28;;;;;;;5.47;2.00;;;;;;;6.76;100.00;95844.59;5032753;28;20863;-91
2020/12/29 00:24:56;;;;;;;4.20;1.67;;;;;;;6.83;100.00;95843.88;5034441;28;20824;-91
2020/12/29 00:27:23;;;;;;;3.60;1.33;;;;;;;6.94;100.00;95842.84;5035929;28;20237;-90
2020/12/29 00:29:50;;;;;;;3.63;1.70;;;;;;;6.87;100.00;95841.78;5032492;28;20992;-89
2020/12/29 00:32:20;;;;;;;1.53;1.13;;;;;;;6.73;100.00;95852.72;5032128;28;20730;-92
2020/12/29 00:34:47;;;;;;;3.37;1.70;;;;;;;6.63;100.00;95852.78;5015699;28;20198;-91
2020/12/29 00:37:14;;;;;;;2.10;1.27;;;;;;;6.73;100.00;95856.16;5032780;28;20222;-90
2020/12/29 00:39:41;;;;;;;1.30;1.20;;;;;;;6.81;100.00;95861.47;5033174;28;20286;-91
2020/12/29 00:42:09;;;;;;;4.77;1.40;;;;;;;6.68;100.00;95863.59;5033086;28;20198;-90
2020/12/29 00:44:36;;;;;;;3.67;1.30;;;;;;;6.66;100.00;95855.09;5033108;28;20199;-90
2020/12/29 00:47:03;;;;;;;2.63;1.63;;;;;;;6.56;100.00;95857.75;5032685;28;20194;-90
2020/12/29 00:49:30;;;;;;;2.27;1.27;;;;;;;6.68;100.00;95863.59;5032847;28;20198;-91
2020/12/29 00:51:57;;;;;;;3.30;1.67;;;;;;;6.70;100.00;95869.50;5033152;28;20237;-90
2020/12/29 00:54:23;;;;;;;5.40;2.03;;;;;;;6.64;100.00;95864.84;5033302;28;20269;-91
2020/12/29 00:56:50;;;;;;;3.07;2.33;;;;;;;6.60;100.00;95869.53;5032734;28;20261;-91
2020/12/29 00:59:18;;;;;;;4.57;2.23;;;;;;;6.65;100.00;95866.47;5032885;28;20664;-90
2020/12/29 01:01:45;;;;;;;5.10;2.50;;;;;;;6.75;100.00;95861.22;5032807;28;20668;-90
2020/12/29 01:04:12;;;;;;;6.33;2.03;;;;;;;6.74;100.00;95863.03;5032979;28;20198;-90
2020/12/29 01:06:38;;;;;;;4.33;1.40;;;;;;;6.55;100.00;95844.84;5032598;28;20222;-91
2020/12/29 01:09:05;;;;;;;5.83;2.30;;;;;;;6.62;100.00;95857.19;5032944;28;20230;-90
2020/12/29 01:11:33;;;;;;;2.10;1.70;;;;;;;6.60;100.00;95855.66;5032710;28;20241;-90
2020/12/29 01:13:59;;;;;;;5.50;1.90;;;;;;;6.70;100.00;95859.06;5032892;28;20683;-90
2020/12/29 01:16:27;;;;;;;4.70;2.63;;;;;;;6.77;100.00;95875.78;5032989;28;20629;-92
2020/12/29 01:18:54;;;;;;;4.33;1.97;;;;;;;6.58;100.00;95866.28;5032719;28;20205;-91
2020/12/29 01:21:21;;;;;;;3.00;2.37;;;;;;;6.58;100.00;95868.88;5034387;28;20198;-90
2020/12/29 01:23:48;;;;;;;4.57;2.03;;;;;;;6.59;100.00;95861.88;5036471;28;20204;-90
2020/12/29 01:26:22;;;;;;;6.23;2.10;;;;;;;6.71;100.00;95859.88;5038203;28;20235;-90
2020/12/29 01:28:49;;;;;;;10.20;4.33;;;;;;;6.59;100.00;95856.63;5036798;28;20278;-90
2020/12/29 01:31:16;;;;;;;3.40;2.00;;;;;;;6.49;100.00;95858.47;5036601;28;20666;-90
2020/12/29 01:33:43;;;;;;;2.37;1.20;;;;;;;6.26;100.00;95864.03;5036533;28;20276;-90
2020/12/29 01:36:10;;;;;;;4.47;2.03;;;;;;;6.39;100.00;95856.69;5036269;28;20230;-89
2020/12/29 01:38:37;;;;;;;1.83;1.43;;;;;;;6.40;100.00;95865.34;5036979;28;20233;-90
2020/12/29 01:41:04;;;;;;;2.13;1.77;;;;;;;6.40;100.00;95863.56;5036408;28;20369;-90
2020/12/29 01:43:31;;;;;;;5.40;2.93;;;;;;;6.50;100.00;95878.38;5036473;28;20203;-90
2020/12/29 01:45:58;;;;;;;11.13;6.83;;;;;;;6.49;100.00;95871.53;5036544;28;20202;-90
2020/12/29 01:48:26;;;;;;;16.53;8.93;;;;;;;6.48;100.00;95872.47;5036764;28;20206;-91
2020/12/29 01:50:55;;;;;;;6.20;5.17;;;;;;;6.59;100.00;95883.56;5036514;28;20260;-91
2020/12/29 01:53:21;;;;;;;7.50;2.90;;;;;;;6.62;100.00;95877.25;5036178;28;20222;-91
2020/12/29 01:55:48;;;;;;;9.40;6.23;;;;;;;6.63;100.00;95876.28;5035870;28;20218;-91
2020/12/29 01:58:15;;;;;;;14.33;8.17;;;;;;;6.51;100.00;95877.41;5036263;28;20230;-90
2020/12/29 02:00:42;;;;;;;3.07;2.10;;;;;;;6.54;100.00;95874.50;5036050;28;20214;-91
2020/12/29 02:03:11;;;;;;;6.97;4.63;;;;;;;6.60;100.00;95879.16;5035926;28;20766;-91
2020/12/29 02:05:39;;;;;;;7.77;5.10;;;;;;;6.59;100.00;95883.56;5036475;28;20230;-91
2020/12/29 02:08:08;;;;;;;6.53;4.77;;;;;;;6.54;100.00;95874.50;5036433;28;20249;-90
2020/12/29 02:10:35;;;;;;;2.40;1.80;;;;;;;6.59;100.00;95873.13;5035973;28;20199;-91
2020/12/29 02:13:02;;;;;;;3.63;3.27;;;;;;;6.47;100.00;95876.88;5036291;28;20270;-91
2020/12/29 02:15:28;;;;;;;6.83;4.80;;;;;;;6.57;100.00;95876.84;5036046;28;20639;-90
2020/12/29 02:17:55;;;;;;;6.03;4.33;;;;;;;6.65;100.00;95876.94;5035663;28;20230;-90
2020/12/29 02:20:22;;;;;;;6.43;4.07;;;;;;;6.64;100.00;95876.13;5035560;28;20373;-90
2020/12/29 02:22:50;;;;;;;4.43;2.80;;;;;;;6.68;100.00;95874.03;5035936;28;20257;-90
2020/12/29 02:25:17;;;;;;;2.13;1.60;;;;;;;6.77;100.00;95869.75;5036060;28;20545;-90
2020/12/29 02:27:46;;;;;;;4.57;1.97;;;;;;;6.69;100.00;95861.81;5035278;28;20238;-90
2020/12/29 02:30:13;;;;;;;2.80;1.90;;;;;;;6.65;100.00;95858.66;5035292;28;20206;-90
2020/12/29 02:32:40;;;;;;;5.30;3.30;;;;;;;6.62;100.00;95857.19;5034252;28;20237;-90
2020/12/29 02:35:08;;;;;;;4.67;4.27;;;;;;;6.72;100.00;95871.97;5035536;28;20195;-89
2020/12/29 02:37:35;;;;;;;3.07;1.30;;;;;;;6.86;100.00;95874.94;5035027;28;20230;-90
2020/12/29 02:40:04;;;;;;;2.83;1.40;;;;;;;6.77;100.00;95875.78;5035354;28;20735;-90
2020/12/29 02:42:31;;;;;;;5.37;1.93;;;;;;;6.73;100.00;95868.41;5035418;28;20202;-90
2020/12/29 02:44:58;;;;;;;4.27;2.00;;;;;;;6.80;100.00;95862.44;5035133;28;20257;-90
2020/12/29 02:47:25;;;;;;;2.93;2.23;;;;;;;6.76;100.00;95868.13;5035015;28;20195;-90
2020/12/29 02:49:52;;;;;;;3.43;1.90;;;;;;;6.74;100.00;95851.75;5035072;28;20194;-90
2020/12/29 02:52:19;;;;;;;3.53;1.87;;;;;;;6.63;100.00;95837.91;5035033;28;20198;-90
2020/12/29 02:54:46;;;;;;;4.17;2.20;;;;;;;6.48;100.00;95848.97;5034867;28;20202;-90
2020/12/29 02:57:13;;;;;;;2.30;1.67;;;;;;;6.41;100.00;95848.75;5035116;28;20219;-90
2020/12/29 02:59:40;;;;;;;4.27;1.83;;;;;;;6.37;100.00;95860.41;5034999;28;20202;-89
2020/12/29 03:02:07;;;;;;;2.23;1.60;;;;;;;6.44;100.00;95853.66;5034865;28;20206;-90
2020/12/29 03:04:34;;;;;;;5.50;1.77;;;;;;;6.43;100.00;95858.06;5035024;28;20195;-90
2020/12/29 03:07:01;;;;;;;3.17;1.70;;;;;;;6.57;100.00;95853.34;5034685;28;20282;-91
2020/12/29 03:09:28;;;;;;;3.57;1.80;;;;;;;6.71;100.00;95846.81;5034620;28;20738;-89
2020/12/29 03:11:55;;;;;;;5.90;1.57;;;;;;;6.60;100.00;95840.81;5034730;28;20203;-90
2020/12/29 03:14:23;;;;;;;4.30;1.90;;;;;;;6.58;100.00;95840.16;5034569;28;20736;-91
2020/12/29 03:16:50;;;;;;;1.67;1.23;;;;;;;6.65;100.00;95842.97;5034167;28;20332;-92
2020/12/29 03:19:17;;;;;;;5.07;2.03;;;;;;;6.94;100.00;95844.66;5034636;28;20233;-91
2020/12/29 03:21:44;;;;;;;3.43;1.63;;;;;;;7.04;100.00;95855.88;5034294;28;20805;-90
2020/12/29 03:24:12;;;;;;;7.57;1.70;;;;;;;7.01;100.00;95845.69;5034494;28;20234;-89
2020/12/29 03:26:39;;;;;;;7.53;1.80;;;;;;;7.11;100.00;95846.47;5033977;28;20242;-91
2020/12/29 03:29:06;;;;;;;2.37;1.33;;;;;;;7.08;100.00;95839.72;5034326;28;20199;-91
2020/12/29 03:31:35;;;;;;;6.73;1.90;;;;;;;7.16;100.00;95846.84;5034389;28;20640;-90
2020/12/29 03:34:02;;;;;;;8.50;3.33;;;;;;;7.03;100.00;95835.91;5034661;28;20199;-90
2020/12/29 03:36:29;;;;;;;3.23;1.20;;;;;;;7.00;100.00;95847.50;5034258;28;20232;-91
2020/12/29 03:38:56;;;;;;;7.73;3.30;;;;;;;6.88;100.00;95832.97;5033923;28;20333;-90
2020/12/29 03:41:23;;;;;;;1.43;1.33;;;;;;;6.77;100.00;95834.00;5034136;28;20217;-90
2020/12/29 03:43:49;;;;;;;5.13;2.00;;;;;;;6.73;100.00;95840.50;5033833;28;20203;-91
2020/12/29 03:46:16;;;;;;;4.50;3.10;;;;;;;6.67;100.00;95833.22;5033862;28;20198;-90
2020/12/29 03:48:44;;;;;;;6.07;4.00;;;;;;;6.68;100.00;95829.63;5033843;28;20242;-90
2020/12/29 03:51:11;;;;;;;1.70;1.60;;;;;;;6.68;100.00;95837.47;5034093;28;20198;-91
2020/12/29 03:53:38;;;;;;;4.07;1.97;;;;;;;6.64;100.00;95843.97;5034029;28;20217;-91
2020/12/29 03:56:05;;;;;;;2.13;1.33;;;;;;;6.52;100.00;95845.13;5033824;28;20840;-90
2020/12/29 03:58:31;;;;;;;2.67;1.77;;;;;;;6.40;100.00;95845.28;5033867;28;20199;-90
2020/12/29 04:00:58;;;;;;;2.50;1.70;;;;;;;6.45;100.00;95849.28;5033885;28;20686;-90
2020/12/29 04:03:25;;;;;;;3.83;1.73;;;;;;;6.43;100.00;95852.00;5033717;28;20249;-90
2020/12/29 04:05:53;;;;;;;6.43;2.23;;;;;;;6.42;100.00;95859.03;5034209;28;20704;-90
2020/12/29 04:08:20;;;;;;;6.40;2.00;;;;;;;6.42;100.00;95874.69;5033923;28;20289;-90
2020/12/29 04:10:47;;;;;;;2.87;1.60;;;;;;;6.45;100.00;95875.38;5033438;28;20198;-91
2020/12/29 04:13:14;;;;;;;2.70;1.60;;;;;;;6.45;100.00;95876.22;5033370;28;20199;-90
2020/12/29 04:15:41;;;;;;;2.67;1.37;;;;;;;6.55;100.00;95889.22;5033483;28;20257;-91
2020/12/29 04:18:08;;;;;;;3.67;1.33;;;;;;;6.64;100.00;95902.22;5033685;28;20238;-90
2020/12/29 04:20:35;;;;;;;2.60;1.27;;;;;;;6.75;100.00;95903.00;5034113;28;20656;-90
2020/12/29 04:23:03;;;;;;;8.13;3.47;;;;;;;6.80;100.00;95914.69;5033353;28;20291;-91
2020/12/29 04:25:30;;;;;;;4.10;3.43;;;;;;;6.76;100.00;95918.56;5033348;28;20238;-90
2020/12/29 04:27:57;;;;;;;10.03;7.13;;;;;;;6.75;100.00;95903.84;5033364;28;20321;-91
2020/12/29 04:30:23;;;;;;;9.57;6.27;;;;;;;6.76;100.00;95910.72;5033517;28;20210;-91
2020/12/29 04:32:50;;;;;;;15.47;10.17;;;;;;;6.81;100.00;95905.06;5033481;28;20718;-91
2020/12/29 04:35:17;;;;;;;42.13;27.47;;;;;;;6.78;100.00;95923.63;5038099;28;20194;-90
2020/12/29 04:37:44;;;;;;;22.90;14.57;;;;;;;6.93;100.00;95926.59;5036455;28;20222;-90
2020/12/29 04:40:12;;;;;;;12.40;9.83;;;;;;;6.88;100.00;95929.63;5034399;28;20248;-89
2020/12/29 04:42:40;;;;;;;9.77;8.47;;;;;;;6.87;100.00;95934.03;5032851;28;20241;-90
2020/12/29 04:45:06;;;;;;;7.10;6.40;;;;;;;6.98;100.00;95934.81;5033180;28;20244;-90
2020/12/29 04:47:33;;;;;;;6.57;5.20;;;;;;;6.94;100.00;95923.03;5033094;28;20198;-90
2020/12/29 04:50:01;;;;;;;6.23;4.63;;;;;;;6.98;100.00;95935.66;5033095;28;20272;-90
2020/12/29 04:52:28;;;;;;;9.70;6.03;;;;;;;6.97;100.00;95935.81;5032821;28;20668;-90
2020/12/29 04:54:56;;;;;;;15.03;9.03;;;;;;;7.29;100.00;95932.75;5032653;28;20233;-90
2020/12/29 04:57:25;;;;;;;13.17;10.50;;;;;;;7.28;100.00;95931.94;5032302;28;20230;-91
2020/12/29 04:59:52;;;;;;;14.87;11.03;;;;;;;7.45;100.00;95938.16;5033557;28;20259;-90
2020/12/29 05:02:19;;;;;;;11.90;6.47;;;;;;;7.47;100.00;95936.19;5038953;28;20202;-90
2020/12/29 05:04:46;;;;;;;15.73;9.20;;;;;;;7.43;100.00;95940.09;5032879;28;20206;-90
2020/12/29 05:07:13;;;;;;;20.60;11.67;;;;;;;7.53;100.00;95948.69;5032795;28;20691;-91
2020/12/29 05:09:40;;;;;;;6.83;2.87;;;;;;;7.61;100.00;95938.31;5033819;28;20588;-90
2020/12/29 05:12:07;;;;;;;13.23;11.77;;;;;;;7.56;100.00;95939.75;5039636;28;20209;-90
2020/12/29 05:14:34;;;;;;;12.63;10.93;;;;;;;7.33;100.00;95947.97;5052534;28;20264;-90
2020/12/29 05:17:02;;;;;;;6.53;5.67;;;;;;;7.22;100.00;95956.03;5052354;28;20261;-90
2020/12/29 05:19:32;;;;;;;8.67;5.17;;;;;;;7.17;100.00;95960.03;5054340;28;20278;-89
2020/12/29 05:21:59;;;;;;;5.53;3.33;;;;;;;7.31;100.00;95960.38;5052944;28;20631;-90
2020/12/29 05:24:26;;;;;;;6.13;4.13;;;;;;;7.17;100.00;95957.41;5052346;28;20686;-90
2020/12/29 05:26:55;;;;;;;9.23;5.33;;;;;;;7.23;100.00;95951.63;5062527;28;20712;-90
2020/12/29 05:29:22;;;;;;;7.60;5.43;;;;;;;7.20;100.00;95949.28;5072461;28;20670;-91
2020/12/29 05:31:50;;;;;;;9.40;5.80;;;;;;;7.06;100.00;95958.44;5072493;28;20224;-90
2020/12/29 05:34:22;;;;;;;3.73;3.43;;;;;;;6.87;100.00;95970.63;5073227;28;20189;-91
2020/12/29 05:36:50;;;;;;;11.93;7.47;;;;;;;7.07;100.00;95973.97;5072552;28;20739;-90
2020/12/29 05:39:17;;;;;;;7.67;3.60;;;;;;;7.14;100.00;95971.63;5073237;28;20668;-90
2020/12/29 05:41:45;;;;;;;5.03;3.50;;;;;;;7.12;100.00;95976.16;5073552;28;20207;-91
2020/12/29 05:47:13;;;;;;;16.77;11.17;;;;;;;7.09;100.00;95976.44;5061594;28;20197;-89
2020/12/29 05:49:42;;;;;;;12.07;8.07;;;;;;;7.20;100.00;95980.66;5072385;28;20250;-89
2020/12/29 05:52:10;;;;;;;29.37;20.17;;;;;;;7.11;100.00;95984.97;5072069;28;20685;-88
2020/12/29 05:54:37;;;;;;;33.47;23.60;;;;;;;7.12;100.00;95994.44;5072542;28;20237;-89
2020/12/29 05:57:04;;;;;;;11.13;7.60;;;;;;;7.15;100.00;96004.63;5072320;28;20228;-89
2020/12/29 05:59:31;;;;;;;8.37;5.20;;;;;;;7.17;100.00;96002.69;5072067;28;20761;-90
2020/12/29 06:01:59;;;;;;;38.87;23.83;;;;;;;7.19;100.00;95999.94;5072503;28;20662;-90
2020/12/29 06:04:28;;;;;;;35.37;19.67;;;;;;;7.26;100.00;96007.03;5072145;28;20205;-91
2020/12/29 06:07:06;;;;;;;29.73;19.87;;;;;;;7.26;100.00;95996.59;5072067;28;20201;-91
2020/12/29 06:09:34;;;;;;;50.50;35.53;;;;;;;7.32;100.00;96003.84;5076624;28;20632;-89
2020/12/29 06:12:01;;;;;;;33.10;26.87;;;;;;;7.24;100.00;96011.59;5075675;28;20284;-88
2020/12/29 06:14:28;;;;;;;27.43;20.60;;;;;;;7.36;100.00;96017.47;5075743;28;20259;-91
2020/12/29 06:16:56;;;;;;;14.53;10.30;;;;;;;7.49;100.00;96017.97;5076438;28;20217;-91
2020/12/29 06:19:27;;;;;;;13.00;9.53;;;;;;;7.63;100.00;96025.31;5075788;28;20197;-90
2020/12/29 06:22:06;;;;;;;18.67;9.47;;;;;;;7.61;100.00;96029.84;5075519;28;20697;-88
2020/12/29 06:24:35;;;;;;;10.10;7.70;;;;;;;7.59;100.00;96025.75;5075220;28;20185;-89
2020/12/29 06:27:04;;;;;;;8.47;6.93;;;;;;;7.69;100.00;96023.06;5075076;28;20261;-89
2020/12/29 06:29:34;;;;;;;6.50;4.40;;;;;;;7.64;100.00;96010.44;5075437;28;20186;-90
2020/12/29 06:32:06;;;;;;;6.27;2.60;;;;;;;7.77;100.00;96021.38;5075257;28;20197;-90
2020/12/29 06:34:38;;;;;;;5.93;5.20;;;;;;;7.86;100.00;96020.50;5075305;28;20201;-90
2020/12/29 06:37:25;;;;;;;8.73;5.47;;;;;;;7.83;100.00;96020.78;5075079;28;20212;-90
2020/12/29 06:39:57;;;;;;;11.93;5.50;;;;;;;7.85;100.00;96012.78;5058657;28;20200;-90
2020/12/29 06:42:24;;;;;;;15.57;11.63;;;;;;;8.07;100.00;96020.22;5055531;28;20194;-89
2020/12/29 06:44:55;;;;;;;9.33;6.47;;;;;;;8.25;100.00;96012.34;5055236;28;20190;-91
2020/12/29 06:47:24;;;;;;;12.77;7.43;;;;;;;8.35;100.00;96004.44;5066845;28;20205;-91
2020/12/29 06:49:52;;;;;;;7.50;5.17;;;;;;;8.35;100.00;95999.19;5075372;28;20193;-91
2020/12/29 06:52:30;;;;;;;5.40;3.43;;;;;;;8.42;100.00;95995.03;5075448;28;20224;-88
2020/12/29 06:54:58;;;;;;;9.70;3.70;;;;;;;8.50;100.00;95994.25;5057227;28;20773;-89
2020/12/29 06:57:26;;;;;;;4.40;2.73;;;;;;;8.67;100.00;95992.59;5059883;28;20275;-89
2020/12/29 06:59:53;;;;;;;4.30;3.03;;;;;;;8.66;100.00;95991.75;5055773;28;20564;-90
2020/12/29 07:02:22;;;;;;;6.20;3.70;;;;;;;8.73;100.00;95984.94;5066035;28;20258;-90
2020/12/29 07:04:54;;;;;;;10.70;3.07;;;;;;;8.75;100.00;95982.13;5074860;28;20204;-90
2020/12/29 07:07:28;;;;;;;6.13;2.97;;;;;;;8.89;100.00;95980.75;5074739;28;20268;-90
2020/12/29 07:10:01;;;;;;;8.27;3.30;;;;;;;9.02;100.00;95971.50;5075993;28;20238;-90
2020/12/29 07:12:31;;;;;;;6.40;4.43;;;;;;;9.13;100.00;95966.94;5074518;28;20181;-89
2020/12/29 07:15:01;;;;;;;3.77;3.20;;;;;;;9.15;100.00;95973.69;5074409;28;20197;-89
2020/12/29 07:17:31;;;;;;;3.70;2.77;;;;;;;9.17;100.00;95986.63;5074598;28;20623;-90
2020/12/29 07:19:58;;;;;;;6.53;3.67;;;;;;;9.29;100.00;95982.75;5074290;28;20684;-89
2020/12/29 07:22:27;;;;;;;7.73;4.90;;;;;;;9.32;100.00;95976.38;5074271;28;20204;-89
2020/12/29 07:24:56;;;;;;;6.17;3.43;;;;;;;9.46;100.00;95973.16;5074043;28;20202;-89
2020/12/29 07:27:27;;;;;;;6.90;3.50;;;;;;;9.64;100.00;95991.41;5071940;28;20233;-89
2020/12/29 07:29:57;;;;;;;9.60;3.97;;;;;;;9.83;100.00;95983.25;5063194;28;20205;-90
2020/12/29 07:32:24;;;;;;;6.43;3.23;;;;;;;9.82;100.00;95986.88;5053970;28;20204;-91
2020/12/29 07:34:51;;;;;;;7.37;3.00;;;;;;;9.96;100.00;95986.25;5054156;28;20206;-90
2020/12/29 07:37:21;;;;;;;5.53;3.23;;;;;;;9.98;100.00;95983.47;5053887;28;20229;-90
2020/12/29 07:39:48;;;;;;;2.83;2.60;;;;;;;10.07;100.00;95984.28;5054253;28;20193;-89
2020/12/29 07:42:15;;;;;;;2.83;2.57;;;;;;;10.18;100.00;95997.09;5053786;28;20206;-89
2020/12/29 07:44:43;;;;;;;4.37;2.40;;;;;;;10.35;100.00;96004.03;5053887;28;20194;-89
2020/12/29 07:47:11;;;;;;;8.43;4.20;;;;;;;10.44;100.00;95987.28;5053846;28;20237;-89
2020/12/29 07:49:38;;;;;;;11.10;6.20;;;;;;;10.55;100.00;95996.66;5053984;28;20217;-88
2020/12/29 07:52:04;;;;;;;8.53;5.20;;;;;;;10.51;100.00;95984.00;5054039;28;20194;-90
2020/12/29 07:54:32;;;;;;;11.37;5.90;;;;;;;10.51;100.00;95992.72;5053760;28;20202;-89
2020/12/29 07:56:59;;;;;;;5.50;2.53;;;;;;;10.52;100.00;95999.59;5053814;28;20221;-90
2020/12/29 07:59:26;;;;;;;8.57;4.33;;;;;;;10.47;100.00;95988.78;5053874;28;20550;-89
2020/12/29 08:01:55;;;;;;;53.77;35.57;;;;;;;10.37;100.00;95988.94;5053521;28;20194;-90
2020/12/29 08:04:29;;;;;;;9.00;5.00;;;;;;;10.34;100.00;95996.31;5053515;28;20285;-89
2020/12/29 08:06:57;;;;;;;18.77;11.93;;;;;;;10.35;100.00;95996.16;5053485;28;20181;-89
2020/12/29 08:09:24;;;;;;;8.17;4.43;;;;;;;10.31;100.00;95994.84;5053524;28;20400;-89
2020/12/29 08:11:52;;;;;;;9.27;7.30;;;;;;;10.26;100.00;95994.53;5053165;28;20204;-89
2020/12/29 08:14:19;;;;;;;9.60;6.97;;;;;;;10.19;100.00;95996.94;5053493;28;20663;-89
2020/12/29 08:16:46;;;;;;;8.87;5.77;;;;;;;10.28;100.00;96010.09;5053269;28;20217;-89
2020/12/29 08:19:13;;;;;;;5.90;4.80;;;;;;;10.39;100.00;96007.16;5053324;28;20197;-89
2020/12/29 08:21:40;;;;;;;15.93;8.83;;;;;;;10.42;100.00;96006.81;5053227;28;20255;-89
2020/12/29 08:24:07;;;;;;;5.93;4.97;;;;;;;10.46;100.00;96002.91;5053358;28;20671;-89
2020/12/29 08:26:35;;;;;;;11.37;5.63;;;;;;;10.54;100.00;96004.72;5052971;28;20260;-89
2020/12/29 08:29:04;;;;;;;6.03;4.13;;;;;;;10.74;100.00;96011.28;5052943;28;20197;-89
2020/12/29 08:31:33;;;;;;;4.60;3.17;;;;;;;10.97;100.00;96003.50;5052232;28;20364;-89
2020/12/29 08:34:00;;;;;;;5.80;3.33;;;;;;;11.22;100.00;95998.19;5052947;28;20238;-89
2020/12/29 08:36:29;;;;;;;5.17;3.87;;;;;;;11.58;100.00;96009.91;5052876;28;20224;-89
2020/12/29 08:39:17;;;;;;;4.17;2.83;;;;;;;11.68;100.00;95998.34;5052809;28;20194;-90
2020/12/29 08:41:52;;;;;;;5.43;4.00;;;;;;;11.71;100.00;96008.50;5052741;28;20194;-89
2020/12/29 08:44:20;;;;;;;7.93;4.20;;;;;;;11.81;100.00;96009.13;5053030;28;20178;-90
2020/12/29 08:46:47;;;;;;;9.20;6.47;;;;;;;11.87;100.00;96011.94;5052969;28;20217;-89
2020/12/29 08:49:14;;;;;;;6.20;3.67;;;;;;;11.94;100.00;96012.06;5053123;28;20198;-89
2020/12/29 08:51:45;;;;;;;4.67;2.40;;;;;;;12.12;100.00;96014.41;5054209;28;20236;-89
2020/12/29 08:54:13;;;;;;;5.63;2.33;;;;;;;12.30;100.00;96011.53;5056471;28;20186;-87
2020/12/29 08:56:40;;;;;;;6.53;3.17;;;;;;;12.58;100.00;96011.81;5055393;28;20217;-89
2020/12/29 08:59:12;;;;;;;6.27;4.03;;;;;;;12.56;100.00;96004.06;5054476;28;20197;-88
2020/12/29 09:01:40;;;;;;;10.27;7.30;;;;;;;12.47;100.00;95991.97;5054936;28;20194;-89
2020/12/29 09:04:28;;;;;;;6.10;5.17;;;;;;;12.31;100.00;95997.34;5052981;28;20271;-88
2020/12/29 09:07:07;;;;;;;6.90;5.33;;;;;;;12.24;100.00;95999.03;5054755;28;20709;-89
2020/12/29 09:09:35;;;;;;;7.33;4.03;;;;;;;12.33;100.00;96009.34;5052676;28;20198;-89
2020/12/29 09:12:15;;;;;;;8.30;5.67;;;;;;;12.54;100.00;96013.16;5055355;28;20205;-89
2020/12/29 09:15:00;;;;;;;11.70;5.70;;;;;;;12.60;100.00;96013.25;5055790;28;20182;-90
2020/12/29 09:17:29;;;;;;;5.30;3.90;;;;;;;12.88;100.00;96017.13;5053566;28;20742;-89
2020/12/29 09:20:10;;;;;;;7.80;3.77;;;;;;;13.13;100.00;96010.66;5053263;28;20197;-89
2020/12/29 09:22:53;;;;;;;8.37;4.43;;;;;;;13.57;100.00;96007.19;5054558;28;20202;-90
2020/12/29 09:25:31;;;;;;;6.80;3.27;;;;;;;13.91;100.00;96013.72;5054279;28;20214;-89
2020/12/29 09:28:18;;;;;;;6.97;3.80;;;;;;;13.83;100.00;96008.56;5054647;28;20226;-89
2020/12/29 09:30:58;;;;;;;7.30;2.97;;;;;;;14.11;100.00;96013.94;5054263;28;20224;-89
2020/12/29 09:33:26;;;;;;;15.97;3.33;;;;;;;14.24;100.00;96004.34;5052988;28;20677;-89
2020/12/29 09:35:53;;;;;;;8.07;3.00;;;;;;;14.61;100.00;96001.66;5054716;28;20285;-89
2020/12/29 09:38:21;;;;;;;7.40;5.13;;;;;;;14.91;100.00;95997.03;5052679;28;20279;-90
2020/12/29 09:40:49;;;;;;;7.20;3.37;;;;;;;14.72;100.00;95993.19;5052460;28;20201;-89
2020/12/29 09:43:16;;;;;;;8.20;3.53;;;;;;;15.05;100.00;95992.66;5055884;28;20209;-88
2020/12/29 09:45:45;;;;;;;7.13;3.30;;;;;;;15.08;100.00;95992.25;5056602;28;20667;-89
2020/12/29 09:48:13;;;;;;;6.53;2.70;;;;;;;14.86;100.00;95992.31;5063160;28;20198;-90
2020/12/29 09:50:40;;;;;;;15.53;6.53;;;;;;;14.87;100.00;95988.66;5058350;28;20582;-89
2020/12/29 09:53:07;;;;;;;8.50;5.10;;;;;;;14.92;100.00;95988.06;5056647;28;20687;-89
2020/12/29 09:55:35;;;;;;;8.47;4.83;;;;;;;15.36;100.00;95987.75;5056140;28;20194;-89
2020/12/29 09:58:02;;;;;;;7.50;5.90;;;;;;;15.07;100.00;95986.16;5055855;28;20249;-90
2020/12/29 10:00:32;;;;;;;4.23;2.97;;;;;;;15.09;100.00;95988.59;5056994;28;20292;-89
2020/12/29 10:02:59;;;;;;;7.00;3.83;;;;;;;15.13;100.00;95980.06;5059484;28;20198;-90
2020/12/29 10:05:27;;;;;;;8.07;5.03;;;;;;;15.44;100.00;95979.63;5056402;28;20702;-89
2020/12/29 10:07:54;;;;;;;7.03;2.80;;;;;;;15.39;100.00;95979.41;5056479;28;20581;-89
2020/12/29 10:10:24;;;;;;;8.43;4.40;;;;;;;15.43;100.00;95979.84;5057847;28;20222;-89
2020/12/29 10:12:52;;;;;;;6.13;2.87;;;;;;;15.16;100.00;95971.75;5056528;28;20198;-90
2020/12/29 10:15:19;;;;;;;6.07;2.53;;;;;;;15.12;100.00;95972.34;5056016;28;20667;-89
2020/12/29 10:17:45;;;;;;;5.27;1.83;;;;;;;14.63;100.00;95970.56;5055742;28;20598;-89
2020/12/29 10:20:12;;;;;;;5.80;1.77;;;;;;;14.49;100.00;95964.31;5055387;28;20197;-90
2020/12/29 10:22:39;;;;;;;3.47;1.90;;;;;;;14.48;100.00;95968.78;5055422;28;20205;-89
2020/12/29 10:25:10;;;;;;;4.60;2.23;;;;;;;14.36;100.00;95964.19;5055580;28;20201;-89
2020/12/29 10:27:37;;;;;;;3.63;1.93;;;;;;;14.41;100.00;95964.41;5055178;28;20225;-90
2020/12/29 10:30:05;;;;;;;4.93;2.07;;;;;;;14.78;100.00;95967.81;5055572;28;20576;-89
2020/12/29 10:32:32;;;;;;;3.27;1.80;;;;;;;14.98;100.00;95963.50;5055254;28;20657;-89
2020/12/29 10:34:59;;;;;;;6.10;2.50;;;;;;;15.09;100.00;95956.84;5055552;28;20197;-89
2020/12/29 10:37:26;;;;;;;2.70;1.80;;;;;;;15.35;100.00;95967.59;5055426;28;20228;-90
2020/12/29 10:39:53;;;;;;;6.87;3.43;;;;;;;15.40;100.00;95972.28;5055229;28;20667;-90
2020/12/29 10:42:20;;;;;;;2.67;1.47;;;;;;;15.40;100.00;95959.03;5055038;28;20211;-90
2020/12/29 10:44:47;;;;;;;3.00;1.73;;;;;;;16.07;100.00;95971.59;5054937;28;20247;-89
2020/12/29 10:47:14;;;;;;;2.77;2.17;;;;;;;16.18;100.00;95967.53;5054996;28;20221;-90
2020/12/29 10:49:41;;;;;;;5.27;4.80;;;;;;;15.51;100.00;95955.84;5055203;28;20624;-90
2020/12/29 10:52:08;;;;;;;5.03;2.70;;;;;;;15.06;100.00;95947.44;5054915;28;20666;-90
2020/12/29 10:54:35;;;;;;;4.13;3.30;;;;;;;15.90;100.00;95951.75;5053856;28;20241;-89
2020/12/29 10:57:02;;;;;;;3.43;2.90;;;;;;;15.14;100.00;95949.16;5054787;28;20316;-89
2020/12/29 10:59:29;;;;;;;4.37;2.00;;;;;;;14.55;100.00;95945.06;5054869;28;20283;-89
2020/12/29 11:01:56;;;;;;;3.60;1.60;;;;;;;15.12;100.00;95945.84;5055225;28;20256;-89
2020/12/29 11:04:24;;;;;;;13.23;8.80;;;;;;;15.82;100.00;95946.63;5055068;28;20198;-89
2020/12/29 11:06:51;;;;;;;7.87;2.73;;;;;;;15.64;100.00;95955.09;5054631;28;20194;-89
2020/12/29 11:09:19;;;;;;;4.77;4.00;;;;;;;15.34;100.00;95951.88;5055713;28;20662;-89
2020/12/29 11:11:47;;;;;;;1.90;1.73;;;;;;;14.71;100.00;95951.88;5054574;28;20226;-90
2020/12/29 11:14:15;;;;;;;14.60;10.17;;;;;;;14.99;100.00;95950.03;5055323;28;20198;-89
2020/12/29 11:16:42;;;;;;;4.57;3.43;;;;;;;15.64;100.00;95957.72;5057422;28;20766;-89
2020/12/29 11:19:09;;;;;;;6.00;4.20;;;;;;;16.03;100.00;95949.13;5055493;28;20202;-90
2020/12/29 11:21:37;;;;;;;3.10;2.10;;;;;;;16.02;100.00;95942.19;5055204;28;20200;-89
2020/12/29 11:24:04;;;;;;;8.23;4.70;;;;;;;16.10;100.00;95942.00;5056184;28;20194;-90
2020/12/29 11:26:32;;;;;;;2.90;1.83;;;;;;;15.88;100.00;95948.47;5055293;28;20230;-89
2020/12/29 11:28:59;;;;;;;7.17;2.97;;;;;;;16.23;100.00;95935.09;5056024;28;20194;-90
2020/12/29 11:31:26;;;;;;;2.83;1.70;;;;;;;16.16;100.00;95941.19;5055872;28;20200;-90
2020/12/29 11:33:53;;;;;;;4.50;1.77;;;;;;;16.32;100.00;95942.66;5057095;28;20201;-89
2020/12/29 11:36:22;;;;;;;3.53;1.57;;;;;;;16.16;100.00;95951.81;5056537;28;20209;-90